Seattle, Washington
Traffic Map
Current Weather Conditions
Seattle, Washington
Clear
Clear
11°
Feels Like: 11°
Wind Chill: 11° Ceiling: Unl
Heat Index: 11° Visibility: 10mi
Dew Point: Wind: 0mph
Humidity: 80% Direction: ° ()
Pressure: 30.61in Gusts: 0mph
Raw Report DataKBFI 240453Z 00000KT 10SM CLR 11/08 A3061 RMK AO2 SLP364 T01110078 $
Traffic Incident Summary
Active as of:
Severity:
Category:
InformationThere was an issue retrieving the traffic information for this location. Please try a different location or try again shortly.
Advertisements